sensor_id;sensor_type;location;lat;lon;timestamp;P1;durP1;ratioP1;P2;durP2;ratioP2
15899;SDS011;8048;50.644;6.184;2023-07-31T00:01:59;3.93;;;2.67;;
15899;SDS011;8048;50.644;6.184;2023-07-31T00:04:24;7.10;;;3.20;;
15899;SDS011;8048;50.644;6.184;2023-07-31T00:06:50;3.93;;;3.27;;
15899;SDS011;8048;50.644;6.184;2023-07-31T00:09:15;3.83;;;3.27;;
15899;SDS011;8048;50.644;6.184;2023-07-31T00:11:41;3.93;;;3.50;;
15899;SDS011;8048;50.644;6.184;2023-07-31T00:14:06;3.00;;;2.80;;
15899;SDS011;8048;50.644;6.184;2023-07-31T00:16:32;3.07;;;2.87;;
15899;SDS011;8048;50.644;6.184;2023-07-31T00:18:57;5.07;;;3.73;;
15899;SDS011;8048;50.644;6.184;2023-07-31T00:21:23;4.90;;;3.13;;
15899;SDS011;8048;50.644;6.184;2023-07-31T00:23:48;6.93;;;3.73;;
15899;SDS011;8048;50.644;6.184;2023-07-31T00:26:14;3.57;;;3.30;;
15899;SDS011;8048;50.644;6.184;2023-07-31T00:28:39;3.30;;;3.00;;
15899;SDS011;8048;50.644;6.184;2023-07-31T00:31:05;2.93;;;2.70;;
15899;SDS011;8048;50.644;6.184;2023-07-31T00:33:31;5.33;;;3.43;;
15899;SDS011;8048;50.644;6.184;2023-07-31T00:35:56;7.60;;;3.50;;
15899;SDS011;8048;50.644;6.184;2023-07-31T00:38:22;4.07;;;3.50;;
15899;SDS011;8048;50.644;6.184;2023-07-31T00:40:48;3.93;;;3.53;;
15899;SDS011;8048;50.644;6.184;2023-07-31T00:43:13;3.77;;;3.30;;
15899;SDS011;8048;50.644;6.184;2023-07-31T00:45:39;4.23;;;3.47;;
15899;SDS011;8048;50.644;6.184;2023-07-31T00:48:04;3.17;;;2.90;;
15899;SDS011;8048;50.644;6.184;2023-07-31T00:50:33;4.00;;;3.60;;
15899;SDS011;8048;50.644;6.184;2023-07-31T00:53:00;5.63;;;3.63;;
15899;SDS011;8048;50.644;6.184;2023-07-31T00:55:26;9.37;;;4.07;;
15899;SDS011;8048;50.644;6.184;2023-07-31T00:57:51;5.57;;;3.90;;
15899;SDS011;8048;50.644;6.184;2023-07-31T01:00:20;6.33;;;4.10;;
15899;SDS011;8048;50.644;6.184;2023-07-31T01:02:46;3.60;;;3.20;;
15899;SDS011;8048;50.644;6.184;2023-07-31T01:05:12;3.83;;;3.47;;
15899;SDS011;8048;50.644;6.184;2023-07-31T01:10:46;3.30;;;3.07;;
15899;SDS011;8048;50.644;6.184;2023-07-31T01:13:17;4.70;;;3.73;;
15899;SDS011;8048;50.644;6.184;2023-07-31T01:15:44;5.33;;;3.60;;
15899;SDS011;8048;50.644;6.184;2023-07-31T01:18:09;5.73;;;3.63;;
15899;SDS011;8048;50.644;6.184;2023-07-31T01:20:35;4.33;;;3.40;;
15899;SDS011;8048;50.644;6.184;2023-07-31T01:26:11;7.13;;;3.97;;
15899;SDS011;8048;50.644;6.184;2023-07-31T01:31:12;3.97;;;3.60;;
15899;SDS011;8048;50.644;6.184;2023-07-31T01:33:42;7.10;;;3.27;;
15899;SDS011;8048;50.644;6.184;2023-07-31T01:36:07;3.60;;;3.30;;
15899;SDS011;8048;50.644;6.184;2023-07-31T01:38:33;3.27;;;2.87;;
15899;SDS011;8048;50.644;6.184;2023-07-31T01:40:59;4.30;;;3.50;;
15899;SDS011;8048;50.644;6.184;2023-07-31T01:43:24;4.43;;;3.40;;
15899;SDS011;8048;50.644;6.184;2023-07-31T01:45:50;4.43;;;3.03;;
15899;SDS011;8048;50.644;6.184;2023-07-31T01:48:15;3.13;;;2.83;;
15899;SDS011;8048;50.644;6.184;2023-07-31T01:50:41;4.60;;;3.20;;
15899;SDS011;8048;50.644;6.184;2023-07-31T01:53:06;5.07;;;4.63;;
15899;SDS011;8048;50.644;6.184;2023-07-31T01:55:32;5.03;;;3.43;;
15899;SDS011;8048;50.644;6.184;2023-07-31T01:57:58;2.63;;;2.43;;
15899;SDS011;8048;50.644;6.184;2023-07-31T02:00:23;5.57;;;4.07;;
15899;SDS011;8048;50.644;6.184;2023-07-31T02:02:49;3.97;;;3.67;;
15899;SDS011;8048;50.644;6.184;2023-07-31T02:05:14;4.83;;;3.77;;
15899;SDS011;8048;50.644;6.184;2023-07-31T02:07:40;4.73;;;3.40;;
15899;SDS011;8048;50.644;6.184;2023-07-31T02:10:05;11.43;;;4.80;;
15899;SDS011;8048;50.644;6.184;2023-07-31T02:12:31;5.47;;;4.97;;
15899;SDS011;8048;50.644;6.184;2023-07-31T02:14:58;5.07;;;3.70;;
15899;SDS011;8048;50.644;6.184;2023-07-31T02:17:24;3.93;;;3.43;;
15899;SDS011;8048;50.644;6.184;2023-07-31T02:19:49;7.53;;;3.73;;
15899;SDS011;8048;50.644;6.184;2023-07-31T02:22:15;3.50;;;3.20;;
15899;SDS011;8048;50.644;6.184;2023-07-31T02:24:40;5.67;;;4.30;;
15899;SDS011;8048;50.644;6.184;2023-07-31T02:27:06;3.60;;;3.23;;
15899;SDS011;8048;50.644;6.184;2023-07-31T02:29:31;3.43;;;3.13;;
15899;SDS011;8048;50.644;6.184;2023-07-31T02:31:57;5.10;;;3.33;;
15899;SDS011;8048;50.644;6.184;2023-07-31T02:34:22;4.27;;;3.60;;
15899;SDS011;8048;50.644;6.184;2023-07-31T02:36:48;3.37;;;3.07;;
15899;SDS011;8048;50.644;6.184;2023-07-31T02:39:13;4.10;;;3.73;;
15899;SDS011;8048;50.644;6.184;2023-07-31T02:41:39;5.37;;;4.13;;
15899;SDS011;8048;50.644;6.184;2023-07-31T02:44:04;8.07;;;4.23;;
15899;SDS011;8048;50.644;6.184;2023-07-31T02:46:30;3.50;;;3.17;;
15899;SDS011;8048;50.644;6.184;2023-07-31T02:48:56;5.93;;;4.07;;
15899;SDS011;8048;50.644;6.184;2023-07-31T02:51:22;9.10;;;4.43;;
15899;SDS011;8048;50.644;6.184;2023-07-31T02:53:47;4.80;;;3.83;;
15899;SDS011;8048;50.644;6.184;2023-07-31T02:56:13;5.47;;;3.80;;
15899;SDS011;8048;50.644;6.184;2023-07-31T02:58:39;3.63;;;3.20;;
15899;SDS011;8048;50.644;6.184;2023-07-31T03:01:04;3.57;;;3.27;;
15899;SDS011;8048;50.644;6.184;2023-07-31T03:03:30;5.10;;;3.50;;
15899;SDS011;8048;50.644;6.184;2023-07-31T03:05:56;6.33;;;3.63;;
15899;SDS011;8048;50.644;6.184;2023-07-31T03:08:21;6.13;;;4.03;;
15899;SDS011;8048;50.644;6.184;2023-07-31T03:10:47;4.30;;;3.90;;
15899;SDS011;8048;50.644;6.184;2023-07-31T03:13:12;8.40;;;4.50;;
15899;SDS011;8048;50.644;6.184;2023-07-31T03:15:38;5.97;;;4.00;;
15899;SDS011;8048;50.644;6.184;2023-07-31T03:18:03;4.40;;;3.67;;
15899;SDS011;8048;50.644;6.184;2023-07-31T03:20:29;4.03;;;3.73;;
15899;SDS011;8048;50.644;6.184;2023-07-31T03:22:54;4.20;;;3.80;;
15899;SDS011;8048;50.644;6.184;2023-07-31T03:25:20;3.70;;;3.40;;
15899;SDS011;8048;50.644;6.184;2023-07-31T03:27:45;5.73;;;3.93;;
15899;SDS011;8048;50.644;6.184;2023-07-31T03:30:11;4.73;;;4.17;;
15899;SDS011;8048;50.644;6.184;2023-07-31T03:32:36;3.70;;;3.30;;
15899;SDS011;8048;50.644;6.184;2023-07-31T03:35:02;4.10;;;3.80;;
15899;SDS011;8048;50.644;6.184;2023-07-31T03:37:28;4.13;;;3.73;;
15899;SDS011;8048;50.644;6.184;2023-07-31T03:39:54;5.20;;;3.27;;
15899;SDS011;8048;50.644;6.184;2023-07-31T03:42:19;4.10;;;3.30;;
15899;SDS011;8048;50.644;6.184;2023-07-31T03:44:45;3.83;;;3.40;;
15899;SDS011;8048;50.644;6.184;2023-07-31T03:47:10;5.00;;;3.47;;
15899;SDS011;8048;50.644;6.184;2023-07-31T03:49:36;7.40;;;4.00;;
15899;SDS011;8048;50.644;6.184;2023-07-31T03:52:01;5.73;;;3.13;;
15899;SDS011;8048;50.644;6.184;2023-07-31T03:54:27;4.97;;;3.37;;
15899;SDS011;8048;50.644;6.184;2023-07-31T03:56:52;4.17;;;3.73;;
15899;SDS011;8048;50.644;6.184;2023-07-31T03:59:18;5.63;;;3.70;;
15899;SDS011;8048;50.644;6.184;2023-07-31T04:01:43;5.60;;;3.20;;
15899;SDS011;8048;50.644;6.184;2023-07-31T04:04:09;4.53;;;3.70;;
15899;SDS011;8048;50.644;6.184;2023-07-31T04:06:35;3.90;;;3.27;;
15899;SDS011;8048;50.644;6.184;2023-07-31T04:09:00;4.30;;;3.80;;
15899;SDS011;8048;50.644;6.184;2023-07-31T04:11:27;6.53;;;3.93;;
15899;SDS011;8048;50.644;6.184;2023-07-31T04:13:52;3.33;;;3.03;;
15899;SDS011;8048;50.644;6.184;2023-07-31T04:16:18;4.07;;;3.67;;
15899;SDS011;8048;50.644;6.184;2023-07-31T04:18:43;4.10;;;3.53;;
15899;SDS011;8048;50.644;6.184;2023-07-31T04:21:09;6.00;;;3.90;;
15899;SDS011;8048;50.644;6.184;2023-07-31T04:23:35;3.67;;;3.37;;
15899;SDS011;8048;50.644;6.184;2023-07-31T04:26:00;5.13;;;4.63;;
15899;SDS011;8048;50.644;6.184;2023-07-31T04:28:26;4.60;;;3.70;;
15899;SDS011;8048;50.644;6.184;2023-07-31T04:30:51;3.53;;;3.23;;
15899;SDS011;8048;50.644;6.184;2023-07-31T04:33:18;4.07;;;3.40;;
15899;SDS011;8048;50.644;6.184;2023-07-31T04:35:53;4.10;;;3.70;;
15899;SDS011;8048;50.644;6.184;2023-07-31T04:38:22;6.67;;;4.93;;
15899;SDS011;8048;50.644;6.184;2023-07-31T04:40:48;3.67;;;3.00;;
15899;SDS011;8048;50.644;6.184;2023-07-31T04:43:13;3.93;;;3.50;;
15899;SDS011;8048;50.644;6.184;2023-07-31T04:45:39;3.97;;;3.33;;
15899;SDS011;8048;50.644;6.184;2023-07-31T04:48:07;3.33;;;3.03;;
15899;SDS011;8048;50.644;6.184;2023-07-31T04:50:33;5.67;;;3.33;;
15899;SDS011;8048;50.644;6.184;2023-07-31T04:52:58;3.63;;;3.00;;
15899;SDS011;8048;50.644;6.184;2023-07-31T04:55:24;5.80;;;3.83;;
15899;SDS011;8048;50.644;6.184;2023-07-31T04:57:49;4.23;;;3.83;;
15899;SDS011;8048;50.644;6.184;2023-07-31T05:00:15;3.57;;;3.20;;
15899;SDS011;8048;50.644;6.184;2023-07-31T05:02:41;4.30;;;3.80;;
15899;SDS011;8048;50.644;6.184;2023-07-31T05:05:06;9.97;;;3.93;;
15899;SDS011;8048;50.644;6.184;2023-07-31T05:07:32;4.40;;;4.00;;
15899;SDS011;8048;50.644;6.184;2023-07-31T05:09:58;4.17;;;3.77;;
15899;SDS011;8048;50.644;6.184;2023-07-31T05:12:23;6.10;;;3.70;;
15899;SDS011;8048;50.644;6.184;2023-07-31T05:14:49;7.03;;;3.50;;
15899;SDS011;8048;50.644;6.184;2023-07-31T05:17:14;3.03;;;2.70;;
15899;SDS011;8048;50.644;6.184;2023-07-31T05:19:40;4.60;;;3.90;;
15899;SDS011;8048;50.644;6.184;2023-07-31T05:22:05;7.67;;;3.80;;
15899;SDS011;8048;50.644;6.184;2023-07-31T05:24:31;8.47;;;4.60;;
15899;SDS011;8048;50.644;6.184;2023-07-31T05:26:57;4.77;;;3.17;;
15899;SDS011;8048;50.644;6.184;2023-07-31T05:29:22;3.93;;;3.63;;
15899;SDS011;8048;50.644;6.184;2023-07-31T05:31:48;4.70;;;3.27;;
15899;SDS011;8048;50.644;6.184;2023-07-31T05:34:13;4.63;;;4.07;;
15899;SDS011;8048;50.644;6.184;2023-07-31T05:36:39;4.27;;;3.87;;
15899;SDS011;8048;50.644;6.184;2023-07-31T05:39:04;3.83;;;3.43;;
15899;SDS011;8048;50.644;6.184;2023-07-31T05:41:33;7.20;;;4.43;;
15899;SDS011;8048;50.644;6.184;2023-07-31T05:44:00;4.43;;;4.03;;
15899;SDS011;8048;50.644;6.184;2023-07-31T05:46:25;4.70;;;3.57;;
15899;SDS011;8048;50.644;6.184;2023-07-31T05:48:51;5.77;;;3.00;;
15899;SDS011;8048;50.644;6.184;2023-07-31T05:51:16;2.97;;;2.70;;
15899;SDS011;8048;50.644;6.184;2023-07-31T05:53:42;7.43;;;3.80;;
15899;SDS011;8048;50.644;6.184;2023-07-31T05:56:08;4.90;;;3.17;;
15899;SDS011;8048;50.644;6.184;2023-07-31T05:58:34;6.40;;;4.70;;
15899;SDS011;8048;50.644;6.184;2023-07-31T06:00:59;5.13;;;3.20;;
15899;SDS011;8048;50.644;6.184;2023-07-31T06:03:25;5.10;;;3.60;;
15899;SDS011;8048;50.644;6.184;2023-07-31T06:05:50;5.90;;;3.20;;
15899;SDS011;8048;50.644;6.184;2023-07-31T06:08:16;6.03;;;4.13;;
15899;SDS011;8048;50.644;6.184;2023-07-31T06:10:41;3.50;;;3.20;;
15899;SDS011;8048;50.644;6.184;2023-07-31T06:13:07;3.57;;;3.23;;
15899;SDS011;8048;50.644;6.184;2023-07-31T06:15:33;5.40;;;4.27;;
15899;SDS011;8048;50.644;6.184;2023-07-31T06:17:58;2.97;;;2.70;;
15899;SDS011;8048;50.644;6.184;2023-07-31T06:20:26;2.83;;;2.63;;
15899;SDS011;8048;50.644;6.184;2023-07-31T06:22:52;3.87;;;3.33;;
15899;SDS011;8048;50.644;6.184;2023-07-31T06:25:18;3.37;;;3.07;;
15899;SDS011;8048;50.644;6.184;2023-07-31T06:27:43;3.07;;;2.87;;
15899;SDS011;8048;50.644;6.184;2023-07-31T06:30:09;5.93;;;4.20;;
15899;SDS011;8048;50.644;6.184;2023-07-31T06:32:35;7.03;;;4.30;;
15899;SDS011;8048;50.644;6.184;2023-07-31T06:35:01;3.50;;;3.20;;
15899;SDS011;8048;50.644;6.184;2023-07-31T06:37:26;3.97;;;3.43;;
15899;SDS011;8048;50.644;6.184;2023-07-31T06:39:52;5.30;;;2.50;;
15899;SDS011;8048;50.644;6.184;2023-07-31T06:42:17;5.00;;;2.60;;
15899;SDS011;8048;50.644;6.184;2023-07-31T06:44:43;3.40;;;3.03;;
15899;SDS011;8048;50.644;6.184;2023-07-31T06:47:08;5.17;;;3.47;;
15899;SDS011;8048;50.644;6.184;2023-07-31T06:49:34;3.43;;;3.03;;
15899;SDS011;8048;50.644;6.184;2023-07-31T06:51:59;5.07;;;3.40;;
15899;SDS011;8048;50.644;6.184;2023-07-31T06:54:25;3.53;;;3.33;;
15899;SDS011;8048;50.644;6.184;2023-07-31T06:56:50;4.40;;;3.10;;
15899;SDS011;8048;50.644;6.184;2023-07-31T06:59:16;6.30;;;3.20;;
15899;SDS011;8048;50.644;6.184;2023-07-31T07:01:41;5.67;;;2.80;;
15899;SDS011;8048;50.644;6.184;2023-07-31T07:04:07;3.60;;;3.30;;
15899;SDS011;8048;50.644;6.184;2023-07-31T07:06:32;2.60;;;2.33;;
15899;SDS011;8048;50.644;6.184;2023-07-31T07:08:58;5.80;;;3.30;;
15899;SDS011;8048;50.644;6.184;2023-07-31T07:11:24;4.13;;;2.50;;
15899;SDS011;8048;50.644;6.184;2023-07-31T07:13:49;3.17;;;2.97;;
15899;SDS011;8048;50.644;6.184;2023-07-31T07:16:15;3.90;;;3.60;;
15899;SDS011;8048;50.644;6.184;2023-07-31T07:18:40;3.50;;;2.90;;
15899;SDS011;8048;50.644;6.184;2023-07-31T07:21:06;4.93;;;3.20;;
15899;SDS011;8048;50.644;6.184;2023-07-31T07:23:31;4.07;;;3.03;;
15899;SDS011;8048;50.644;6.184;2023-07-31T07:25:57;2.80;;;2.60;;
15899;SDS011;8048;50.644;6.184;2023-07-31T07:28:22;3.70;;;2.93;;
15899;SDS011;8048;50.644;6.184;2023-07-31T07:30:54;4.70;;;3.23;;
15899;SDS011;8048;50.644;6.184;2023-07-31T07:33:19;3.90;;;2.77;;
15899;SDS011;8048;50.644;6.184;2023-07-31T07:35:45;2.57;;;2.47;;
15899;SDS011;8048;50.644;6.184;2023-07-31T07:38:11;2.77;;;2.57;;
15899;SDS011;8048;50.644;6.184;2023-07-31T07:40:39;4.23;;;2.73;;
15899;SDS011;8048;50.644;6.184;2023-07-31T07:43:05;5.17;;;3.33;;
15899;SDS011;8048;50.644;6.184;2023-07-31T07:45:30;5.97;;;2.70;;
15899;SDS011;8048;50.644;6.184;2023-07-31T07:47:56;3.17;;;2.83;;
15899;SDS011;8048;50.644;6.184;2023-07-31T07:50:21;2.60;;;2.33;;
15899;SDS011;8048;50.644;6.184;2023-07-31T07:52:47;2.40;;;2.20;;
15899;SDS011;8048;50.644;6.184;2023-07-31T07:55:12;2.60;;;2.40;;
15899;SDS011;8048;50.644;6.184;2023-07-31T07:57:38;2.90;;;2.67;;
15899;SDS011;8048;50.644;6.184;2023-07-31T08:00:04;3.53;;;2.37;;
15899;SDS011;8048;50.644;6.184;2023-07-31T08:02:30;4.77;;;3.20;;
15899;SDS011;8048;50.644;6.184;2023-07-31T08:04:56;2.60;;;2.40;;
15899;SDS011;8048;50.644;6.184;2023-07-31T08:07:21;2.63;;;2.40;;
15899;SDS011;8048;50.644;6.184;2023-07-31T08:09:47;2.60;;;2.40;;
15899;SDS011;8048;50.644;6.184;2023-07-31T08:12:12;2.93;;;2.50;;
15899;SDS011;8048;50.644;6.184;2023-07-31T08:14:38;2.90;;;2.50;;
15899;SDS011;8048;50.644;6.184;2023-07-31T08:17:03;2.47;;;2.30;;
15899;SDS011;8048;50.644;6.184;2023-07-31T08:19:29;2.60;;;2.40;;
15899;SDS011;8048;50.644;6.184;2023-07-31T08:21:55;3.30;;;2.60;;
15899;SDS011;8048;50.644;6.184;2023-07-31T08:24:20;4.70;;;2.63;;
15899;SDS011;8048;50.644;6.184;2023-07-31T08:26:46;4.47;;;2.67;;
15899;SDS011;8048;50.644;6.184;2023-07-31T08:29:12;2.90;;;2.70;;
15899;SDS011;8048;50.644;6.184;2023-07-31T08:31:37;2.97;;;2.00;;
15899;SDS011;8048;50.644;6.184;2023-07-31T08:34:03;2.53;;;2.33;;
15899;SDS011;8048;50.644;6.184;2023-07-31T08:36:28;3.37;;;2.43;;
15899;SDS011;8048;50.644;6.184;2023-07-31T08:38:54;2.40;;;2.20;;
15899;SDS011;8048;50.644;6.184;2023-07-31T08:41:19;3.33;;;2.37;;
15899;SDS011;8048;50.644;6.184;2023-07-31T08:43:45;2.30;;;2.13;;
15899;SDS011;8048;50.644;6.184;2023-07-31T08:46:11;3.67;;;2.83;;
15899;SDS011;8048;50.644;6.184;2023-07-31T08:48:37;2.80;;;2.07;;
15899;SDS011;8048;50.644;6.184;2023-07-31T08:51:05;2.63;;;2.43;;
15899;SDS011;8048;50.644;6.184;2023-07-31T08:53:32;3.83;;;2.80;;
15899;SDS011;8048;50.644;6.184;2023-07-31T08:55:57;3.83;;;3.53;;
15899;SDS011;8048;50.644;6.184;2023-07-31T08:58:25;2.63;;;2.30;;
15899;SDS011;8048;50.644;6.184;2023-07-31T09:00:52;3.30;;;2.60;;
15899;SDS011;8048;50.644;6.184;2023-07-31T09:03:19;2.63;;;2.43;;
15899;SDS011;8048;50.644;6.184;2023-07-31T09:05:48;2.10;;;2.00;;
15899;SDS011;8048;50.644;6.184;2023-07-31T09:08:17;5.03;;;2.77;;
15899;SDS011;8048;50.644;6.184;2023-07-31T09:10:44;2.43;;;2.20;;
15899;SDS011;8048;50.644;6.184;2023-07-31T09:13:15;3.37;;;3.07;;
15899;SDS011;8048;50.644;6.184;2023-07-31T09:15:43;2.37;;;2.20;;
15899;SDS011;8048;50.644;6.184;2023-07-31T09:18:09;2.70;;;2.50;;
15899;SDS011;8048;50.644;6.184;2023-07-31T09:20:35;7.43;;;2.87;;
15899;SDS011;8048;50.644;6.184;2023-07-31T09:23:13;2.50;;;2.30;;
15899;SDS011;8048;50.644;6.184;2023-07-31T09:25:41;2.43;;;2.33;;
15899;SDS011;8048;50.644;6.184;2023-07-31T09:28:10;2.33;;;2.13;;
15899;SDS011;8048;50.644;6.184;2023-07-31T09:30:46;3.50;;;2.97;;
15899;SDS011;8048;50.644;6.184;2023-07-31T09:33:16;3.97;;;3.00;;
15899;SDS011;8048;50.644;6.184;2023-07-31T09:35:43;3.03;;;2.73;;
15899;SDS011;8048;50.644;6.184;2023-07-31T09:38:10;2.73;;;2.40;;
15899;SDS011;8048;50.644;6.184;2023-07-31T09:40:40;5.33;;;2.73;;
15899;SDS011;8048;50.644;6.184;2023-07-31T09:43:08;2.53;;;2.43;;
15899;SDS011;8048;50.644;6.184;2023-07-31T09:45:38;2.40;;;2.10;;
15899;SDS011;8048;50.644;6.184;2023-07-31T09:48:08;5.00;;;2.37;;
15899;SDS011;8048;50.644;6.184;2023-07-31T09:50:36;2.63;;;2.17;;
15899;SDS011;8048;50.644;6.184;2023-07-31T09:53:03;2.40;;;2.30;;
15899;SDS011;8048;50.644;6.184;2023-07-31T09:55:29;3.23;;;3.00;;
15899;SDS011;8048;50.644;6.184;2023-07-31T09:57:56;2.30;;;2.10;;
15899;SDS011;8048;50.644;6.184;2023-07-31T10:00:22;3.93;;;2.90;;
15899;SDS011;8048;50.644;6.184;2023-07-31T10:02:50;2.40;;;2.20;;
15899;SDS011;8048;50.644;6.184;2023-07-31T10:05:16;6.00;;;2.57;;
15899;SDS011;8048;50.644;6.184;2023-07-31T10:07:42;2.40;;;2.20;;
15899;SDS011;8048;50.644;6.184;2023-07-31T10:10:15;3.60;;;2.60;;
15899;SDS011;8048;50.644;6.184;2023-07-31T10:12:41;2.50;;;2.30;;
15899;SDS011;8048;50.644;6.184;2023-07-31T10:15:08;1.83;;;1.73;;
15899;SDS011;8048;50.644;6.184;2023-07-31T10:17:35;2.83;;;2.60;;
15899;SDS011;8048;50.644;6.184;2023-07-31T10:20:01;3.90;;;2.60;;
15899;SDS011;8048;50.644;6.184;2023-07-31T10:22:31;2.23;;;2.03;;
15899;SDS011;8048;50.644;6.184;2023-07-31T10:24:57;2.10;;;2.00;;
15899;SDS011;8048;50.644;6.184;2023-07-31T10:27:24;2.70;;;2.27;;
15899;SDS011;8048;50.644;6.184;2023-07-31T10:29:49;2.03;;;1.93;;
15899;SDS011;8048;50.644;6.184;2023-07-31T10:32:16;1.83;;;1.73;;
15899;SDS011;8048;50.644;6.184;2023-07-31T10:34:42;1.93;;;1.80;;
15899;SDS011;8048;50.644;6.184;2023-07-31T10:37:19;2.63;;;1.80;;
15899;SDS011;8048;50.644;6.184;2023-07-31T10:40:00;1.70;;;1.60;;
15899;SDS011;8048;50.644;6.184;2023-07-31T10:42:35;1.73;;;1.63;;
15899;SDS011;8048;50.644;6.184;2023-07-31T10:45:05;1.60;;;1.50;;
15899;SDS011;8048;50.644;6.184;2023-07-31T10:47:39;1.40;;;1.40;;
15899;SDS011;8048;50.644;6.184;2023-07-31T10:53:02;1.67;;;1.57;;
15899;SDS011;8048;50.644;6.184;2023-07-31T10:55:32;1.77;;;1.47;;
15899;SDS011;8048;50.644;6.184;2023-07-31T10:58:04;1.67;;;1.33;;
15899;SDS011;8048;50.644;6.184;2023-07-31T11:00:31;1.47;;;1.37;;
15899;SDS011;8048;50.644;6.184;2023-07-31T11:02:58;1.27;;;1.17;;
15899;SDS011;8048;50.644;6.184;2023-07-31T11:08:29;1.40;;;1.40;;
15899;SDS011;8048;50.644;6.184;2023-07-31T11:13:28;2.00;;;1.80;;
15899;SDS011;8048;50.644;6.184;2023-07-31T11:15:53;2.57;;;1.93;;
15899;SDS011;8048;50.644;6.184;2023-07-31T11:18:19;2.10;;;2.00;;
15899;SDS011;8048;50.644;6.184;2023-07-31T11:20:45;1.50;;;1.50;;
15899;SDS011;8048;50.644;6.184;2023-07-31T11:23:10;2.43;;;2.30;;
15899;SDS011;8048;50.644;6.184;2023-07-31T11:25:37;2.47;;;2.27;;
15899;SDS011;8048;50.644;6.184;2023-07-31T11:28:08;4.00;;;2.40;;
15899;SDS011;8048;50.644;6.184;2023-07-31T11:30:36;3.53;;;2.17;;
15899;SDS011;8048;50.644;6.184;2023-07-31T11:33:03;2.50;;;2.30;;
15899;SDS011;8048;50.644;6.184;2023-07-31T11:35:32;2.20;;;2.10;;
15899;SDS011;8048;50.644;6.184;2023-07-31T11:37:59;5.73;;;2.30;;
15899;SDS011;8048;50.644;6.184;2023-07-31T11:40:25;2.33;;;2.20;;
15899;SDS011;8048;50.644;6.184;2023-07-31T11:42:55;3.33;;;2.53;;
15899;SDS011;8048;50.644;6.184;2023-07-31T11:45:28;2.40;;;2.20;;
15899;SDS011;8048;50.644;6.184;2023-07-31T11:47:55;2.00;;;1.90;;
15899;SDS011;8048;50.644;6.184;2023-07-31T11:50:22;2.90;;;2.70;;
15899;SDS011;8048;50.644;6.184;2023-07-31T11:52:50;3.40;;;3.10;;
15899;SDS011;8048;50.644;6.184;2023-07-31T11:55:25;2.60;;;2.40;;
15899;SDS011;8048;50.644;6.184;2023-07-31T11:57:52;3.00;;;2.77;;
15899;SDS011;8048;50.644;6.184;2023-07-31T12:00:18;2.60;;;2.43;;
15899;SDS011;8048;50.644;6.184;2023-07-31T12:02:44;3.03;;;2.70;;
15899;SDS011;8048;50.644;6.184;2023-07-31T12:05:14;3.20;;;2.73;;
15899;SDS011;8048;50.644;6.184;2023-07-31T12:07:43;2.93;;;2.73;;
15899;SDS011;8048;50.644;6.184;2023-07-31T12:10:39;3.30;;;3.00;;
15899;SDS011;8048;50.644;6.184;2023-07-31T12:13:07;4.50;;;3.53;;
15899;SDS011;8048;50.644;6.184;2023-07-31T12:15:42;3.07;;;2.87;;
15899;SDS011;8048;50.644;6.184;2023-07-31T12:18:12;3.67;;;2.60;;
15899;SDS011;8048;50.644;6.184;2023-07-31T12:20:43;3.07;;;2.77;;
15899;SDS011;8048;50.644;6.184;2023-07-31T12:23:17;2.93;;;2.73;;
15899;SDS011;8048;50.644;6.184;2023-07-31T12:26:06;2.87;;;2.67;;
15899;SDS011;8048;50.644;6.184;2023-07-31T12:31:02;3.20;;;2.60;;
15899;SDS011;8048;50.644;6.184;2023-07-31T12:33:31;2.40;;;2.20;;
15899;SDS011;8048;50.644;6.184;2023-07-31T12:35:58;4.13;;;3.03;;
15899;SDS011;8048;50.644;6.184;2023-07-31T12:38:25;2.13;;;1.93;;
15899;SDS011;8048;50.644;6.184;2023-07-31T12:40:51;3.33;;;2.67;;
15899;SDS011;8048;50.644;6.184;2023-07-31T12:43:16;3.80;;;2.67;;
15899;SDS011;8048;50.644;6.184;2023-07-31T12:45:42;3.20;;;2.73;;
15899;SDS011;8048;50.644;6.184;2023-07-31T12:48:08;3.27;;;3.03;;
15899;SDS011;8048;50.644;6.184;2023-07-31T12:50:33;3.43;;;3.00;;
15899;SDS011;8048;50.644;6.184;2023-07-31T12:53:01;2.80;;;2.60;;
15899;SDS011;8048;50.644;6.184;2023-07-31T12:55:28;2.53;;;2.33;;
15899;SDS011;8048;50.644;6.184;2023-07-31T12:57:54;2.50;;;2.03;;
15899;SDS011;8048;50.644;6.184;2023-07-31T13:00:20;2.97;;;2.73;;
15899;SDS011;8048;50.644;6.184;2023-07-31T13:02:46;5.47;;;2.87;;
15899;SDS011;8048;50.644;6.184;2023-07-31T13:05:12;2.50;;;2.30;;
15899;SDS011;8048;50.644;6.184;2023-07-31T13:07:38;2.33;;;2.20;;
15899;SDS011;8048;50.644;6.184;2023-07-31T13:10:04;2.10;;;1.87;;
15899;SDS011;8048;50.644;6.184;2023-07-31T13:12:30;2.70;;;2.60;;
15899;SDS011;8048;50.644;6.184;2023-07-31T13:14:56;2.30;;;2.10;;
15899;SDS011;8048;50.644;6.184;2023-07-31T13:17:22;3.20;;;2.60;;
15899;SDS011;8048;50.644;6.184;2023-07-31T13:19:47;3.10;;;2.90;;
15899;SDS011;8048;50.644;6.184;2023-07-31T13:22:13;2.40;;;2.30;;
15899;SDS011;8048;50.644;6.184;2023-07-31T13:24:38;3.17;;;2.87;;
15899;SDS011;8048;50.644;6.184;2023-07-31T13:27:04;2.97;;;2.77;;
15899;SDS011;8048;50.644;6.184;2023-07-31T13:29:29;3.93;;;3.10;;
15899;SDS011;8048;50.644;6.184;2023-07-31T13:31:55;3.47;;;3.10;;
15899;SDS011;8048;50.644;6.184;2023-07-31T13:34:21;3.10;;;2.60;;
15899;SDS011;8048;50.644;6.184;2023-07-31T13:36:46;3.80;;;3.47;;
15899;SDS011;8048;50.644;6.184;2023-07-31T13:39:12;2.80;;;2.60;;
15899;SDS011;8048;50.644;6.184;2023-07-31T13:41:37;3.10;;;2.90;;
15899;SDS011;8048;50.644;6.184;2023-07-31T13:44:03;3.00;;;2.80;;
15899;SDS011;8048;50.644;6.184;2023-07-31T13:46:28;2.70;;;2.50;;
15899;SDS011;8048;50.644;6.184;2023-07-31T13:48:54;3.30;;;3.07;;
15899;SDS011;8048;50.644;6.184;2023-07-31T13:51:20;4.00;;;2.90;;
15899;SDS011;8048;50.644;6.184;2023-07-31T13:53:47;7.80;;;3.60;;
15899;SDS011;8048;50.644;6.184;2023-07-31T13:56:13;4.80;;;2.70;;
15899;SDS011;8048;50.644;6.184;2023-07-31T13:58:38;3.67;;;3.47;;
15899;SDS011;8048;50.644;6.184;2023-07-31T14:01:04;3.47;;;3.17;;
15899;SDS011;8048;50.644;6.184;2023-07-31T14:03:30;2.47;;;2.37;;
15899;SDS011;8048;50.644;6.184;2023-07-31T14:05:56;3.93;;;3.50;;
15899;SDS011;8048;50.644;6.184;2023-07-31T14:08:21;2.83;;;2.63;;
15899;SDS011;8048;50.644;6.184;2023-07-31T14:10:47;2.73;;;2.53;;
15899;SDS011;8048;50.644;6.184;2023-07-31T14:13:12;3.63;;;3.30;;
15899;SDS011;8048;50.644;6.184;2023-07-31T14:15:39;2.50;;;2.30;;
15899;SDS011;8048;50.644;6.184;2023-07-31T14:18:07;3.17;;;2.57;;
15899;SDS011;8048;50.644;6.184;2023-07-31T14:20:32;3.93;;;3.63;;
15899;SDS011;8048;50.644;6.184;2023-07-31T14:22:58;3.23;;;2.93;;
15899;SDS011;8048;50.644;6.184;2023-07-31T14:25:24;2.60;;;2.50;;
15899;SDS011;8048;50.644;6.184;2023-07-31T14:27:49;4.40;;;3.53;;
15899;SDS011;8048;50.644;6.184;2023-07-31T14:30:15;3.00;;;2.70;;
15899;SDS011;8048;50.644;6.184;2023-07-31T14:32:42;3.43;;;3.13;;
15899;SDS011;8048;50.644;6.184;2023-07-31T14:35:07;2.87;;;2.67;;
15899;SDS011;8048;50.644;6.184;2023-07-31T14:37:36;4.00;;;3.60;;
15899;SDS011;8048;50.644;6.184;2023-07-31T14:40:07;5.17;;;3.93;;
15899;SDS011;8048;50.644;6.184;2023-07-31T14:42:34;3.60;;;3.30;;
15899;SDS011;8048;50.644;6.184;2023-07-31T14:45:00;3.57;;;3.37;;
15899;SDS011;8048;50.644;6.184;2023-07-31T14:47:25;3.53;;;3.23;;
15899;SDS011;8048;50.644;6.184;2023-07-31T14:49:51;4.83;;;3.33;;
15899;SDS011;8048;50.644;6.184;2023-07-31T14:52:16;4.10;;;3.50;;
15899;SDS011;8048;50.644;6.184;2023-07-31T14:54:42;3.80;;;3.00;;
15899;SDS011;8048;50.644;6.184;2023-07-31T14:57:08;3.50;;;3.07;;
15899;SDS011;8048;50.644;6.184;2023-07-31T14:59:34;4.57;;;3.57;;
15899;SDS011;8048;50.644;6.184;2023-07-31T15:01:59;3.87;;;3.33;;
15899;SDS011;8048;50.644;6.184;2023-07-31T15:04:25;4.00;;;3.17;;
15899;SDS011;8048;50.644;6.184;2023-07-31T15:06:51;4.23;;;3.47;;
15899;SDS011;8048;50.644;6.184;2023-07-31T15:09:17;3.27;;;2.97;;
15899;SDS011;8048;50.644;6.184;2023-07-31T15:11:43;2.57;;;2.37;;
15899;SDS011;8048;50.644;6.184;2023-07-31T15:14:08;3.40;;;3.10;;
15899;SDS011;8048;50.644;6.184;2023-07-31T15:16:34;2.60;;;2.40;;